createdAt,value
2018-02-21T00:03:31.091Z,55.13
2018-02-21T00:09:35.660Z,52.80
2018-02-21T00:15:41.042Z,57.27
2018-02-21T00:21:45.512Z,52.77
2018-02-21T00:27:50.080Z,55.03
2018-02-21T00:33:55.311Z,52.77
2018-02-21T00:39:59.849Z,53.37
2018-02-21T00:46:04.683Z,50.70
2018-02-21T00:52:09.580Z,50.50
2018-02-21T00:58:14.156Z,50.70
2018-02-21T01:04:18.877Z,49.30
2018-02-21T01:10:23.835Z,50.20
2018-02-21T01:16:28.362Z,47.90
2018-02-21T01:22:33.091Z,51.00
2018-02-21T01:28:37.695Z,46.43
2018-02-21T01:34:42.599Z,44.87
2018-02-21T01:40:47.094Z,45.53
2018-02-21T01:46:52.647Z,43.20
2018-02-21T01:52:58.092Z,39.43
2018-02-21T01:59:02.615Z,38.60
2018-02-21T02:05:07.379Z,41.77
2018-02-21T02:11:11.978Z,39.50
2018-02-21T02:17:16.694Z,40.80
2018-02-21T02:23:22.478Z,38.00
2018-02-21T02:29:27.006Z,39.37
2018-02-21T02:35:31.499Z,37.07
2018-02-21T02:41:36.105Z,39.30
2018-02-21T02:47:40.653Z,37.23
2018-02-21T02:53:45.243Z,37.77
2018-02-21T02:59:50.297Z,40.10
2018-02-21T03:05:55.036Z,43.03
2018-02-21T03:12:00.280Z,41.93
2018-02-21T03:18:04.828Z,41.20
2018-02-21T03:24:09.662Z,40.77
2018-02-21T03:30:14.286Z,41.10
2018-02-21T03:36:19.758Z,37.30
2018-02-21T03:42:25.433Z,39.50
2018-02-21T03:48:30.004Z,37.33
2018-02-21T03:54:34.733Z,39.97
2018-02-21T04:00:40.303Z,36.87
2018-02-21T04:06:45.438Z,37.73
2018-02-21T04:12:50.292Z,39.03
2018-02-21T04:19:01.696Z,40.43
2018-02-21T04:25:06.255Z,35.97
2018-02-21T04:31:10.920Z,35.27
2018-02-21T04:37:16.191Z,36.43
2018-02-21T04:43:21.842Z,35.17
2018-02-21T04:49:26.411Z,36.63
2018-02-21T05:02:09.538Z,32.10
2018-02-21T05:08:14.076Z,32.97
2018-02-21T05:14:19.448Z,34.00
2018-02-21T05:20:24.224Z,31.40
2018-02-21T05:26:28.820Z,29.60
2018-02-21T05:32:33.465Z,34.50
2018-02-21T05:38:38.059Z,33.00
2018-02-21T05:44:44.105Z,29.40
2018-02-21T05:50:48.972Z,34.00
2018-02-21T05:56:53.980Z,33.47
2018-02-21T06:02:58.524Z,35.23
2018-02-21T06:09:03.124Z,31.20
2018-02-21T06:15:07.721Z,33.40
2018-02-21T06:21:12.220Z,34.60
2018-02-21T06:27:17.626Z,33.67
2018-02-21T06:33:22.772Z,34.30
2018-02-21T06:39:27.372Z,31.80
2018-02-21T06:45:31.977Z,32.03
2018-02-21T06:51:36.576Z,32.77
2018-02-21T06:57:41.180Z,32.20
2018-02-21T07:03:45.732Z,30.37
2018-02-21T07:09:51.047Z,29.67
2018-02-21T07:15:55.621Z,28.00
2018-02-21T07:22:00.182Z,29.43
2018-02-21T07:28:04.775Z,30.03
2018-02-21T07:34:09.893Z,28.00
2018-02-21T07:40:14.573Z,28.30
2018-02-21T07:46:19.138Z,27.90
2018-02-21T07:52:23.792Z,29.17
2018-02-21T07:58:28.492Z,27.30
2018-02-21T08:04:33.023Z,30.67
2018-02-21T08:10:37.567Z,28.63
2018-02-21T08:16:42.124Z,29.27
2018-02-21T08:22:46.686Z,28.93
2018-02-21T08:28:52.322Z,29.53
2018-02-21T08:34:56.884Z,32.47
2018-02-21T08:41:01.402Z,32.60
2018-02-21T08:47:05.946Z,31.10
2018-02-21T08:53:10.661Z,29.57
2018-02-21T08:59:15.300Z,30.90
2018-02-21T09:05:19.924Z,32.13
2018-02-21T09:11:24.427Z,30.57
2018-02-21T09:17:29.216Z,32.60
2018-02-21T09:23:34.503Z,32.07
2018-02-21T09:29:39.199Z,30.00
2018-02-21T09:35:43.760Z,28.67
2018-02-21T09:41:48.494Z,29.70
2018-02-21T09:47:53.260Z,29.37
2018-02-21T09:53:58.752Z,31.40
2018-02-21T10:00:04.056Z,28.13
2018-02-21T10:06:08.519Z,27.53
2018-02-21T10:12:13.357Z,27.30
2018-02-21T10:18:17.883Z,28.17
2018-02-21T10:24:22.436Z,30.30
2018-02-21T10:30:26.955Z,27.30
2018-02-21T10:36:32.230Z,27.27
2018-02-21T10:42:37.044Z,26.37
2018-02-21T10:48:41.685Z,30.00
2018-02-21T10:54:46.283Z,40.37
2018-02-21T11:07:33.090Z,33.63
2018-02-21T11:13:37.599Z,31.90
2018-02-21T11:19:42.875Z,29.77
2018-02-21T11:25:47.411Z,26.20
2018-02-21T11:31:53.882Z,31.27
2018-02-21T11:37:58.507Z,68.17
2018-02-21T11:44:03.004Z,23.97
2018-02-21T11:50:07.556Z,24.20
2018-02-21T11:56:12.109Z,24.27
2018-02-21T12:02:16.706Z,21.80
2018-02-21T12:08:22.206Z,25.70
2018-02-21T12:14:26.792Z,31.40
2018-02-21T12:20:31.345Z,26.77
2018-02-21T12:26:35.905Z,21.13
2018-02-21T12:32:53.471Z,25.10
2018-02-21T12:39:03.586Z,24.67
2018-02-21T12:45:08.082Z,21.43
2018-02-21T12:51:12.797Z,20.53
2018-02-21T12:57:18.171Z,21.60
2018-02-21T13:03:22.929Z,21.30
2018-02-21T13:09:27.478Z,22.67
2018-02-21T13:15:32.082Z,20.83
2018-02-21T13:21:36.759Z,19.17
2018-02-21T13:27:41.454Z,20.03
2018-02-21T13:33:46.002Z,26.07
2018-02-21T13:39:50.701Z,25.90
2018-02-21T13:45:55.679Z,24.03
2018-02-21T13:52:00.308Z,24.10
2018-02-21T13:58:05.585Z,18.20
2018-02-21T14:04:10.218Z,24.83
2018-02-21T14:10:15.529Z,13.87
2018-02-21T14:16:20.109Z,13.47
2018-02-21T14:22:24.864Z,12.10
2018-02-21T14:28:30.281Z,11.80
2018-02-21T14:34:34.818Z,12.40
2018-02-21T14:40:39.381Z,11.43
2018-02-21T14:46:44.036Z,9.57
2018-02-21T14:52:49.391Z,11.67
2018-02-21T14:58:54.983Z,13.53
2018-02-21T15:04:59.522Z,14.37
2018-02-21T15:11:04.038Z,14.13
2018-02-21T15:17:08.585Z,15.53
2018-02-21T15:23:13.155Z,14.63
2018-02-21T15:29:17.876Z,13.93
2018-02-21T15:35:23.446Z,12.97
2018-02-21T15:41:27.957Z,13.73
2018-02-21T15:47:32.497Z,13.00
2018-02-21T15:53:37.050Z,13.80
2018-02-21T15:59:42.386Z,14.37
2018-02-21T16:05:46.988Z,15.57
2018-02-21T16:11:51.659Z,15.43
2018-02-21T16:17:56.176Z,14.20
2018-02-21T16:24:01.636Z,15.13
2018-02-21T16:30:06.262Z,15.47
2018-02-21T16:36:11.981Z,15.27
2018-02-21T16:42:16.533Z,14.70
2018-02-21T16:48:21.224Z,14.00
2018-02-21T16:54:27.293Z,14.80
2018-02-21T17:00:31.822Z,13.50
2018-02-21T17:06:37.136Z,13.70
2018-02-21T17:12:41.647Z,13.73
2018-02-21T17:18:46.231Z,13.03
2018-02-21T17:24:50.955Z,12.63
2018-02-21T17:30:55.546Z,13.60
2018-02-21T17:37:00.091Z,14.20
2018-02-21T17:43:04.693Z,13.37
2018-02-21T17:49:09.955Z,13.80
2018-02-21T17:55:14.487Z,13.90
2018-02-21T18:01:19.417Z,13.33
2018-02-21T18:07:24.238Z,13.90
2018-02-21T18:13:29.552Z,14.03
2018-02-21T18:19:34.332Z,13.90
2018-02-21T18:25:39.607Z,13.90
2018-02-21T18:31:44.913Z,14.80
2018-02-21T18:37:50.271Z,15.70
2018-02-21T18:43:55.222Z,16.27
2018-02-21T18:49:59.748Z,16.47
2018-02-21T18:56:04.300Z,14.77
2018-02-21T19:02:08.895Z,16.53
2018-02-21T19:08:13.461Z,14.57
2018-02-21T19:14:18.518Z,15.83
2018-02-21T19:20:23.842Z,15.33
2018-02-21T19:26:28.362Z,16.57
2018-02-21T19:32:37.895Z,17.07
2018-02-21T19:38:42.424Z,18.17
2018-02-21T19:44:47.152Z,14.97
2018-02-21T19:50:51.731Z,15.90
2018-02-21T19:56:56.324Z,13.43
2018-02-21T20:03:00.845Z,13.80
2018-02-21T20:09:05.639Z,13.37
2018-02-21T20:15:12.887Z,13.50
2018-02-21T20:21:18.348Z,15.13
2018-02-21T20:27:23.345Z,13.80
2018-02-21T20:33:29.025Z,14.40
2018-02-21T20:39:35.092Z,14.30
2018-02-21T20:45:40.074Z,15.97
2018-02-21T20:51:44.923Z,14.70
2018-02-21T20:57:50.705Z,14.73
2018-02-21T21:03:55.410Z,15.50
2018-02-21T21:10:00.478Z,15.40
2018-02-21T21:16:05.244Z,14.30
2018-02-21T21:22:10.860Z,14.80
2018-02-21T21:28:15.662Z,13.57
2018-02-21T21:34:20.524Z,14.57
2018-02-21T21:40:25.219Z,14.80
2018-02-21T21:46:30.011Z,14.83
2018-02-21T21:52:34.712Z,14.93
2018-02-21T21:58:39.829Z,14.17
2018-02-21T22:04:45.800Z,15.00
2018-02-21T22:10:50.968Z,14.80
2018-02-21T22:16:56.383Z,15.63
2018-02-21T22:23:03.025Z,13.70
2018-02-21T22:29:08.736Z,13.20
2018-02-21T22:35:13.461Z,12.60
2018-02-21T22:41:19.104Z,13.90
2018-02-21T22:47:25.712Z,13.43
2018-02-21T22:53:30.954Z,13.47
2018-02-21T22:59:35.595Z,13.33
2018-02-21T23:05:41.286Z,13.03
2018-02-21T23:11:46.044Z,11.93
2018-02-21T23:17:51.396Z,12.70
2018-02-21T23:23:58.177Z,13.90
2018-02-21T23:30:02.972Z,13.30
2018-02-21T23:36:07.921Z,12.90
2018-02-21T23:42:12.576Z,12.73
2018-02-21T23:48:17.287Z,12.90
2018-02-21T23:54:23.129Z,12.40
